Terminal Aerodrome Forecast
Issued by NWS Lake Charles, LA

Home | Current Version | Previous Version | Text Only | Print | Product List | Glossary On
Versions: 1 2 3 4 5 6 7 8 9 10 11 12 13 14 15
227
FTUS44 KLCH 261731
TAFAEX
TAF
KAEX 261731Z 2618/2718 16009KT P6SM FEW040
     FM270200 14010KT P6SM FEW022 BKN035
     FM270800 15008KT P6SM VCSH OVC015 PROB30 2709/2713 4SM -TSRA
      BKN009CB=

USA.gov is the U.S. government's official web portal to all federal, state and local government web resources and services.